Time;durP1;ratioP1;P1;durP2;ratioP2;P2;SDS_P1;SDS_P2;PMS_P1;PMS_P2;Temp;Humidity;BMP_temperature;BMP_pressure;BME280_temperature;BME280_humidity;BME280_pressure;Samples;Min_cycle;Max_cycle;Signal;HPM_P1;HPM_P2
2023/03/29 00:01:29;;;;;;;5.63;1.83;;;9.50;99.90;;;;;;5121470;23;20259;-94
2023/03/29 00:03:32;;;;;;;13.52;1.70;;;9.50;99.90;;;;;;5120982;23;20717;-94
2023/03/29 00:05:34;;;;;;;4.43;1.53;;;9.40;99.90;;;;;;5125522;23;20160;-92
2023/03/29 00:07:35;;;;;;;4.70;1.80;;;9.60;99.90;;;;;;5148542;23;20151;-93
2023/03/29 00:09:36;;;;;;;6.27;1.80;;;9.50;99.90;;;;;;5126158;23;20153;-92
2023/03/29 00:11:38;;;;;;;4.93;1.92;;;9.40;99.90;;;;;;5122045;23;20557;-92
2023/03/29 00:13:38;;;;;;;7.43;1.65;;;9.50;99.90;;;;;;5148114;23;20670;-96
2023/03/29 00:15:41;;;;;;;4.13;1.67;;;9.50;99.90;;;;;;5123222;23;20152;-96
2023/03/29 00:17:41;;;;;;;5.15;1.80;;;9.30;99.90;;;;;;5146028;23;20151;-96
2023/03/29 00:19:45;;;;;;;2.80;1.63;;;9.20;99.90;;;;;;5122038;23;20621;-92
2023/03/29 00:21:46;;;;;;;3.93;1.67;;;9.30;99.90;;;;;;5122006;23;20179;-96
2023/03/29 00:23:47;;;;;;;5.33;2.03;;;9.20;99.90;;;;;;5123690;23;20156;-96
2023/03/29 00:25:48;;;;;;;5.03;1.73;;;9.20;99.90;;;;;;5122186;23;20214;-96
2023/03/29 00:27:48;;;;;;;5.40;1.53;;;9.20;99.90;;;;;;5123121;23;20152;-92
2023/03/29 00:29:49;;;;;;;6.25;1.67;;;9.20;99.90;;;;;;5123223;23;20148;-96
2023/03/29 00:31:52;;;;;;;6.37;2.63;;;9.40;99.90;;;;;;5121297;23;20176;-92
2023/03/29 00:33:53;;;;;;;5.03;1.70;;;9.50;99.90;;;;;;5121967;23;20152;-92
2023/03/29 00:35:54;;;;;;;4.07;1.80;;;9.30;99.90;;;;;;5120007;23;20155;-92
2023/03/29 00:37:56;;;;;;;3.20;1.80;;;9.50;99.90;;;;;;5120279;23;20551;-92
2023/03/29 00:39:57;;;;;;;7.38;2.20;;;9.30;99.90;;;;;;5146160;23;20238;-96
2023/03/29 00:41:57;;;;;;;3.57;1.60;;;9.40;99.90;;;;;;5122290;23;20668;-96
2023/03/29 00:44:04;;;;;;;5.05;1.40;;;9.40;99.90;;;;;;5146740;23;20223;-96
2023/03/29 00:46:05;;;;;;;7.97;2.00;;;9.50;99.90;;;;;;5146610;23;20170;-93
2023/03/29 00:48:11;;;;;;;4.10;1.65;;;9.50;99.90;;;;;;5125240;23;20156;-96
2023/03/29 00:50:28;;;;;;;4.40;1.77;;;9.40;99.90;;;;;;5120756;23;20152;-92
2023/03/29 00:52:32;;;;;;;7.10;1.97;;;9.20;99.90;;;;;;5120432;23;20266;-92
2023/03/29 00:54:36;;;;;;;6.43;1.95;;;9.30;99.90;;;;;;5121157;23;20144;-95
2023/03/29 00:56:41;;;;;;;4.87;1.93;;;9.40;99.90;;;;;;5149520;23;20159;-95
2023/03/29 00:59:09;;;;;;;6.93;1.77;;;9.20;99.90;;;;;;5147424;23;20148;-92
2023/03/29 01:01:16;;;;;;;4.57;1.60;;;9.30;99.90;;;;;;5123016;23;20725;-95
2023/03/29 01:03:23;;;;;;;8.63;2.07;;;9.30;99.90;;;;;;5149240;23;20191;-92
2023/03/29 01:05:36;;;;;;;4.60;2.03;;;9.30;99.90;;;;;;5147622;23;20151;-93
2023/03/29 01:07:56;;;;;;;5.73;2.03;;;9.40;99.90;;;;;;5146526;23;20213;-93
2023/03/29 01:10:08;;;;;;;4.83;1.67;;;9.50;99.90;;;;;;5121303;23;20155;-93
2023/03/29 01:12:17;;;;;;;6.20;1.80;;;9.60;99.90;;;;;;5121830;23;20168;-93
2023/03/29 01:14:32;;;;;;;6.43;2.03;;;9.60;99.90;;;;;;5144741;23;20154;-93
2023/03/29 01:16:37;;;;;;;5.07;1.83;;;9.40;99.90;;;;;;5124869;23;20151;-96
2023/03/29 01:18:38;;;;;;;5.67;2.20;;;9.40;99.90;;;;;;5152652;23;20151;-96
2023/03/29 01:20:49;;;;;;;8.27;2.17;;;9.30;99.90;;;;;;5150324;23;20214;-93
2023/03/29 01:23:04;;;;;;;5.15;1.92;;;9.40;99.90;;;;;;5126920;23;20187;-96
2023/03/29 01:25:40;;;;;;;7.57;2.10;;;9.40;99.90;;;;;;5124299;23;20228;-92
2023/03/29 01:27:53;;;;;;;6.53;2.30;;;9.30;99.90;;;;;;5125375;23;20163;-93
2023/03/29 01:30:02;;;;;;;7.13;2.03;;;9.40;99.90;;;;;;5125721;23;20148;-92
2023/03/29 01:32:15;;;;;;;5.63;2.05;;;9.30;99.90;;;;;;5121707;23;20635;-93
2023/03/29 01:34:24;;;;;;;5.53;1.65;;;9.40;99.90;;;;;;5147991;23;20181;-92
2023/03/29 01:36:36;;;;;;;9.70;2.20;;;9.40;99.90;;;;;;5147541;23;20156;-92
2023/03/29 01:38:47;;;;;;;7.17;2.30;;;9.60;99.90;;;;;;5121272;23;20239;-92
2023/03/29 01:40:49;;;;;;;8.30;2.38;;;9.50;99.90;;;;;;5146906;23;20147;-92
2023/03/29 01:43:04;;;;;;;6.07;2.20;;;9.60;99.90;;;;;;5146952;23;20195;-92
2023/03/29 01:45:14;;;;;;;6.73;1.90;;;9.60;99.90;;;;;;5122189;23;20662;-93
2023/03/29 01:47:43;;;;;;;5.40;1.90;;;9.70;99.90;;;;;;5125648;23;20573;-92
2023/03/29 01:49:55;;;;;;;6.63;2.00;;;9.80;99.90;;;;;;5147384;23;20155;-92
2023/03/29 01:52:26;;;;;;;6.07;2.08;;;9.80;99.90;;;;;;5146841;23;20179;-92
2023/03/29 01:54:38;;;;;;;2.53;1.50;;;9.90;99.90;;;;;;5118857;23;20531;-92
2023/03/29 01:56:42;;;;;;;3.70;1.70;;;10.00;99.90;;;;;;5151153;23;20155;-96
2023/03/29 01:58:47;;;;;;;4.27;2.13;;;9.80;99.90;;;;;;5123948;23;20156;-96
2023/03/29 02:00:53;;;;;;;5.40;2.15;;;9.60;99.90;;;;;;5151230;23;20179;-93
2023/03/29 02:02:58;;;;;;;5.07;2.03;;;9.50;99.90;;;;;;5148968;23;20633;-93
2023/03/29 02:05:00;;;;;;;5.30;1.70;;;9.50;99.90;;;;;;5147981;23;20151;-95
2023/03/29 02:07:03;;;;;;;3.33;1.90;;;9.60;99.90;;;;;;5149220;23;20156;-93
2023/03/29 02:09:05;;;;;;;5.30;1.98;;;9.60;99.90;;;;;;5124011;23;20145;-93
2023/03/29 02:11:07;;;;;;;2.80;1.42;;;9.70;99.90;;;;;;5125617;23;20180;-93
2023/03/29 02:13:08;;;;;;;9.85;1.83;;;9.90;99.90;;;;;;5124142;23;20179;-93
2023/03/29 02:15:17;;;;;;;5.45;1.90;;;9.80;99.90;;;;;;5122852;23;20210;-96
2023/03/29 02:17:19;;;;;;;2.63;1.60;;;9.80;99.90;;;;;;5152348;23;20151;-93
2023/03/29 02:19:23;;;;;;;6.18;1.85;;;9.70;99.90;;;;;;5127048;23;20167;-96
2023/03/29 02:21:40;;;;;;;3.97;1.67;;;9.70;99.90;;;;;;5149465;23;20167;-96
2023/03/29 02:23:46;;;;;;;5.95;2.08;;;9.80;99.90;;;;;;5124752;23;20198;-92
2023/03/29 02:25:49;;;;;;;6.97;2.50;;;9.70;99.90;;;;;;5152680;23;20190;-96
2023/03/29 02:27:52;;;;;;;8.13;1.87;;;9.90;99.90;;;;;;5151113;23;20215;-92
2023/03/29 02:29:53;;;;;;;4.88;1.85;;;10.00;99.90;;;;;;5147405;23;20152;-92
2023/03/29 02:32:04;;;;;;;9.77;2.00;;;9.70;99.90;;;;;;5125755;23;20169;-92
2023/03/29 02:34:12;;;;;;;6.00;2.03;;;9.60;99.90;;;;;;5150249;23;20250;-92
2023/03/29 02:36:45;;;;;;;4.85;1.75;;;9.70;99.90;;;;;;5150135;23;20459;-93
2023/03/29 02:38:46;;;;;;;6.82;2.10;;;9.70;99.90;;;;;;5121159;23;20136;-93
2023/03/29 02:40:47;;;;;;;7.03;2.20;;;9.60;99.90;;;;;;5123305;23;20152;-93
2023/03/29 02:42:49;;;;;;;6.77;2.40;;;9.70;99.90;;;;;;5123115;23;20187;-92
2023/03/29 02:44:54;;;;;;;5.67;2.50;;;9.70;99.90;;;;;;5122352;23;20148;-92
2023/03/29 02:47:05;;;;;;;4.93;2.20;;;9.80;99.90;;;;;;5123785;23;20160;-92
2023/03/29 02:49:09;;;;;;;4.47;2.30;;;9.70;99.90;;;;;;5127577;23;20147;-96
2023/03/29 02:51:17;;;;;;;7.63;2.20;;;9.60;99.90;;;;;;5123715;23;20160;-96
2023/03/29 02:53:23;;;;;;;5.60;2.20;;;9.60;99.90;;;;;;5148288;23;20151;-92
2023/03/29 02:55:33;;;;;;;4.63;2.00;;;9.50;99.90;;;;;;5123731;23;20157;-92
2023/03/29 02:57:37;;;;;;;5.20;2.28;;;9.50;99.90;;;;;;5147801;23;20155;-94
2023/03/29 02:59:39;;;;;;;7.85;2.30;;;9.40;99.90;;;;;;5150567;23;20482;-96
2023/03/29 03:01:41;;;;;;;8.05;2.63;;;9.60;99.90;;;;;;5122529;23;20180;-92
2023/03/29 03:03:43;;;;;;;3.60;1.90;;;9.70;99.90;;;;;;5151986;23;20183;-95
2023/03/29 03:05:44;;;;;;;6.57;2.30;;;9.70;99.90;;;;;;5125578;23;20243;-93
2023/03/29 03:07:45;;;;;;;7.25;2.60;;;9.50;99.90;;;;;;5124095;23;20152;-93
2023/03/29 03:09:47;;;;;;;7.32;2.47;;;9.40;99.90;;;;;;5122694;23;20157;-92
2023/03/29 03:11:48;;;;;;;9.82;2.92;;;9.50;99.90;;;;;;5146364;23;20265;-93
2023/03/29 03:13:49;;;;;;;10.55;2.78;;;9.20;99.90;;;;;;5147415;23;20162;-91
2023/03/29 03:15:50;;;;;;;5.60;2.38;;;9.20;99.90;;;;;;5121519;23;20212;-92
2023/03/29 03:17:51;;;;;;;8.68;2.72;;;9.20;99.90;;;;;;5122881;23;20152;-92
2023/03/29 03:19:52;;;;;;;10.30;2.63;;;9.10;99.90;;;;;;5125585;23;20567;-92
2023/03/29 03:21:53;;;;;;;5.47;2.47;;;9.20;99.90;;;;;;5149957;23;20646;-93
2023/03/29 03:23:55;;;;;;;6.60;2.47;;;9.10;99.90;;;;;;5151381;23;20152;-93
2023/03/29 03:25:57;;;;;;;11.80;2.40;;;9.10;99.90;;;;;;5125732;23;20164;-92
2023/03/29 03:27:57;;;;;;;4.97;2.20;;;9.10;99.90;;;;;;5124223;23;20156;-96
2023/03/29 03:29:59;;;;;;;7.03;2.60;;;9.10;99.90;;;;;;5127620;23;20162;-93
2023/03/29 03:32:33;;;;;;;6.67;2.60;;;9.10;99.90;;;;;;5092104;23;20166;-93
2023/03/29 03:35:10;;;;;;;9.17;2.50;;;9.00;99.90;;;;;;5154709;23;20469;-92
2023/03/29 03:37:11;;;;;;;7.20;2.72;;;9.00;99.90;;;;;;5148357;23;20151;-92
2023/03/29 03:39:13;;;;;;;7.33;2.60;;;9.00;99.90;;;;;;5146443;23;20509;-92
2023/03/29 03:41:14;;;;;;;8.37;2.77;;;9.00;99.90;;;;;;5123882;23;20199;-92
2023/03/29 03:43:14;;;;;;;5.77;2.30;;;9.00;99.90;;;;;;5121536;23;20228;-92
2023/03/29 03:45:17;;;;;;;4.93;2.50;;;8.90;99.90;;;;;;5125941;23;20191;-92
2023/03/29 03:47:37;;;;;;;5.75;2.78;;;9.00;99.90;;;;;;5151953;23;20166;-94
2023/03/29 03:49:52;;;;;;;6.60;2.33;;;9.00;99.90;;;;;;5154331;23;20151;-95
2023/03/29 03:51:57;;;;;;;7.43;2.67;;;9.00;99.90;;;;;;5149572;23;20195;-92
2023/03/29 03:53:58;;;;;;;7.93;2.47;;;9.10;99.90;;;;;;5124752;23;20152;-96
2023/03/29 03:56:08;;;;;;;9.10;2.60;;;9.20;99.90;;;;;;5151275;23;20158;-96
2023/03/29 03:58:16;;;;;;;6.90;2.63;;;9.40;99.90;;;;;;5148663;23;20219;-96
2023/03/29 04:00:20;;;;;;;6.65;2.55;;;9.40;99.90;;;;;;5123375;23;20523;-92
2023/03/29 04:02:41;;;;;;;4.57;2.75;;;9.40;99.90;;;;;;5094773;23;20242;-92
2023/03/29 04:04:42;;;;;;;8.60;2.60;;;9.10;99.90;;;;;;5125731;23;20180;-95
2023/03/29 04:06:46;;;;;;;5.83;2.40;;;9.00;99.90;;;;;;5150498;23;20163;-94
2023/03/29 04:09:11;;;;;;;6.37;2.67;;;8.90;99.90;;;;;;5141378;23;20178;-91
2023/03/29 04:11:16;;;;;;;5.33;2.47;;;8.90;99.90;;;;;;5150363;23;20171;-92
2023/03/29 04:13:18;;;;;;;8.47;2.70;;;8.80;99.90;;;;;;5125667;23;20144;-92
2023/03/29 04:15:44;;;;;;;6.70;2.50;;;8.80;99.90;;;;;;5146517;23;20723;-92
2023/03/29 04:17:46;;;;;;;7.17;2.60;;;8.80;99.90;;;;;;5150610;23;20140;-93
2023/03/29 04:20:01;;;;;;;6.07;2.37;;;8.70;99.90;;;;;;5124369;23;20159;-96
2023/03/29 04:22:04;;;;;;;8.27;2.37;;;8.80;99.90;;;;;;5150410;23;20641;-91
2023/03/29 04:24:06;;;;;;;5.10;2.77;;;8.80;99.90;;;;;;5123705;23;20164;-92
2023/03/29 04:26:10;;;;;;;7.67;2.67;;;8.90;99.90;;;;;;5127917;23;20188;-96
2023/03/29 04:28:18;;;;;;;6.90;2.63;;;9.10;99.90;;;;;;5128906;23;20606;-92
2023/03/29 04:30:37;;;;;;;8.70;2.70;;;9.20;99.90;;;;;;5154583;23;20147;-92
2023/03/29 04:32:52;;;;;;;6.78;2.72;;;9.00;99.90;;;;;;5154011;23;20724;-92
2023/03/29 04:34:53;;;;;;;7.67;2.97;;;9.20;99.90;;;;;;5128290;23;20167;-91
2023/03/29 04:36:55;;;;;;;7.00;2.87;;;9.40;99.90;;;;;;5126275;23;20136;-93
2023/03/29 04:39:00;;;;;;;7.27;2.67;;;9.40;99.90;;;;;;5151642;23;20147;-95
2023/03/29 04:41:03;;;;;;;11.00;2.83;;;9.50;99.90;;;;;;5126831;23;20252;-93
2023/03/29 04:43:29;;;;;;;6.23;2.77;;;9.60;99.90;;;;;;5155317;23;20197;-93
2023/03/29 04:45:42;;;;;;;6.57;2.97;;;9.70;99.90;;;;;;5128675;23;20198;-92
2023/03/29 04:47:48;;;;;;;9.37;2.93;;;9.60;99.90;;;;;;5153914;23;20531;-92
2023/03/29 04:49:51;;;;;;;6.05;2.80;;;9.60;99.90;;;;;;5148373;23;20163;-92
2023/03/29 04:52:01;;;;;;;5.30;2.75;;;9.80;99.90;;;;;;5131672;23;20167;-92
2023/03/29 04:54:05;;;;;;;6.53;2.80;;;9.80;99.90;;;;;;5152805;23;20213;-92
2023/03/29 04:56:17;;;;;;;7.20;3.10;;;9.90;99.90;;;;;;5131439;23;20156;-96
2023/03/29 04:58:37;;;;;;;8.43;2.65;;;10.00;99.90;;;;;;5155573;23;20612;-92
2023/03/29 05:00:39;;;;;;;7.13;3.00;;;10.00;99.90;;;;;;5153956;23;20154;-92
2023/03/29 05:02:59;;;;;;;5.57;2.75;;;10.10;99.90;;;;;;5155787;23;20209;-92
2023/03/29 05:05:02;;;;;;;4.40;2.70;;;10.20;99.90;;;;;;5152590;23;20151;-92
2023/03/29 05:07:05;;;;;;;5.75;2.67;;;10.20;99.90;;;;;;5120926;23;20172;-90
2023/03/29 05:09:07;;;;;;;5.95;2.72;;;10.10;99.90;;;;;;5118108;23;20148;-90
2023/03/29 05:11:26;;;;;;;9.52;2.97;;;9.90;99.90;;;;;;5121207;23;20259;-90
2023/03/29 05:13:27;;;;;;;4.93;2.58;;;10.10;99.90;;;;;;5143347;23;20183;-90
2023/03/29 05:15:28;;;;;;;7.65;3.20;;;9.90;99.90;;;;;;5118234;23;20226;-90
2023/03/29 05:17:30;;;;;;;8.18;3.00;;;9.80;99.90;;;;;;5118066;23;20194;-92
2023/03/29 05:19:37;;;;;;;7.97;2.60;;;10.00;99.90;;;;;;5119201;23;20467;-90
2023/03/29 05:21:38;;;;;;;8.85;3.00;;;10.00;99.90;;;;;;5117939;23;20168;-91
2023/03/29 05:23:42;;;;;;;6.25;3.30;;;10.00;99.90;;;;;;5118413;23;20200;-90
2023/03/29 05:25:49;;;;;;;11.70;3.33;;;10.20;99.90;;;;;;5144027;23;20171;-90
2023/03/29 05:27:50;;;;;;;6.75;2.90;;;10.10;99.90;;;;;;5142939;23;20182;-90
2023/03/29 05:29:51;;;;;;;6.13;2.88;;;10.10;99.90;;;;;;5142612;23;20160;-90
2023/03/29 05:32:03;;;;;;;6.50;3.17;;;10.10;99.90;;;;;;5120155;23;20192;-92
2023/03/29 05:34:05;;;;;;;6.00;3.05;;;10.20;99.90;;;;;;5118096;23;20614;-89
2023/03/29 05:36:14;;;;;;;8.00;3.00;;;10.30;99.90;;;;;;5142729;23;20155;-92
2023/03/29 05:38:19;;;;;;;9.30;2.92;;;10.30;99.90;;;;;;5118999;23;20248;-91
2023/03/29 05:40:20;;;;;;;6.10;2.88;;;10.20;99.90;;;;;;5117782;23;20156;-92
2023/03/29 05:42:41;;;;;;;7.07;2.88;;;10.40;99.90;;;;;;5146318;23;20638;-93
2023/03/29 05:44:43;;;;;;;5.85;3.05;;;10.40;99.90;;;;;;5143137;23;20148;-92
2023/03/29 05:46:51;;;;;;;13.98;3.60;;;10.30;99.90;;;;;;5119143;23;20164;-91
2023/03/29 05:48:52;;;;;;;10.77;3.30;;;10.20;99.90;;;;;;5117867;23;20148;-91
2023/03/29 05:50:56;;;;;;;10.45;3.05;;;10.10;99.90;;;;;;5142736;23;20158;-95
2023/03/29 05:52:57;;;;;;;10.07;3.30;;;10.10;99.90;;;;;;5117908;23;20627;-91
2023/03/29 05:54:58;;;;;;;7.10;3.30;;;10.10;99.90;;;;;;5118773;23;20159;-92
2023/03/29 05:57:00;;;;;;;5.03;2.70;;;10.20;99.90;;;;;;5118131;23;20148;-92
2023/03/29 05:59:01;;;;;;;8.98;3.10;;;10.00;99.90;;;;;;5118217;23;20160;-92
2023/03/29 06:01:03;;;;;;;6.57;2.65;;;10.10;99.90;;;;;;5143826;23;20167;-92
2023/03/29 06:03:26;;;;;;;7.05;3.00;;;10.20;99.90;;;;;;5122522;23;20184;-91
2023/03/29 06:05:31;;;;;;;8.77;2.75;;;10.20;99.90;;;;;;5144466;23;20183;-95
2023/03/29 06:07:34;;;;;;;7.43;2.93;;;10.30;99.90;;;;;;5119428;23;20208;-92
2023/03/29 06:09:54;;;;;;;5.93;2.72;;;10.40;99.90;;;;;;5148079;23;20151;-92
2023/03/29 06:11:57;;;;;;;8.07;3.05;;;10.40;99.90;;;;;;5144049;23;20183;-91
2023/03/29 06:14:05;;;;;;;7.50;3.03;;;10.40;99.90;;;;;;5120517;23;20195;-92
2023/03/29 06:16:11;;;;;;;9.00;3.33;;;10.50;99.90;;;;;;5119184;23;20148;-91
2023/03/29 06:18:13;;;;;;;4.80;2.92;;;10.40;99.90;;;;;;5119338;23;20184;-94
2023/03/29 06:20:14;;;;;;;9.23;2.95;;;10.30;99.90;;;;;;5119362;23;20237;-91
2023/03/29 06:22:18;;;;;;;9.60;3.22;;;10.30;99.90;;;;;;5144176;23;20665;-92
2023/03/29 06:24:19;;;;;;;10.57;3.33;;;10.30;99.90;;;;;;5119604;23;20163;-92
2023/03/29 06:26:29;;;;;;;12.40;3.22;;;10.50;99.90;;;;;;5120477;23;20176;-91
2023/03/29 06:28:29;;;;;;;8.32;3.38;;;10.60;99.90;;;;;;5119502;23;20666;-92
2023/03/29 06:30:30;;;;;;;9.80;3.60;;;10.80;99.90;;;;;;5120151;23;20207;-92
2023/03/29 06:32:33;;;;;;;9.07;2.90;;;10.80;99.90;;;;;;5119134;23;20626;-92
2023/03/29 06:34:39;;;;;;;6.35;3.05;;;10.70;99.90;;;;;;5119742;23;20498;-91
2023/03/29 06:37:00;;;;;;;8.93;3.08;;;10.90;99.90;;;;;;5147821;23;20256;-91
2023/03/29 06:39:02;;;;;;;7.93;3.28;;;11.00;99.90;;;;;;5143970;23;20152;-91
2023/03/29 06:41:22;;;;;;;6.18;2.88;;;11.20;99.90;;;;;;5147711;23;20185;-92
2023/03/29 06:43:42;;;;;;;6.93;2.67;;;11.20;99.90;;;;;;5147977;23;20209;-91
2023/03/29 06:45:48;;;;;;;6.47;3.20;;;11.10;99.90;;;;;;5143891;23;20289;-91
2023/03/29 06:47:59;;;;;;;5.70;2.75;;;11.40;99.90;;;;;;5121545;23;20152;-91
2023/03/29 06:50:00;;;;;;;5.65;3.25;;;11.50;99.90;;;;;;5143969;23;20151;-93
2023/03/29 06:52:09;;;;;;;9.23;2.97;;;11.40;99.90;;;;;;5120697;23;20222;-91
2023/03/29 06:54:10;;;;;;;11.10;3.20;;;11.50;99.90;;;;;;5119125;23;20184;-92
2023/03/29 06:56:18;;;;;;;7.00;3.30;;;11.50;99.90;;;;;;5143729;23;20163;-92
2023/03/29 06:58:29;;;;;;;8.25;3.03;;;11.40;99.90;;;;;;5121334;23;20145;-94
2023/03/29 07:00:36;;;;;;;7.25;3.17;;;11.50;99.90;;;;;;5145333;23;20159;-91
2023/03/29 07:02:48;;;;;;;7.80;2.95;;;11.40;99.90;;;;;;5120652;23;20524;-92
2023/03/29 07:04:50;;;;;;;9.23;2.90;;;11.40;99.90;;;;;;5118885;23;20583;-91
2023/03/29 07:07:18;;;;;;;11.77;2.85;;;11.20;99.90;;;;;;5147475;23;20164;-92
2023/03/29 07:09:20;;;;;;;9.73;2.83;;;11.10;99.90;;;;;;5144101;23;20544;-91
2023/03/29 07:11:49;;;;;;;12.73;3.50;;;11.40;99.90;;;;;;5141965;23;20637;-91
2023/03/29 07:13:56;;;;;;;14.98;3.83;;;11.50;99.90;;;;;;5143274;23;20159;-91
2023/03/29 07:15:57;;;;;;;9.77;3.25;;;11.50;99.90;;;;;;5119442;23;20210;-91
2023/03/29 07:18:11;;;;;;;8.80;2.60;;;11.40;99.90;;;;;;5143516;23;20147;-91
2023/03/29 07:20:13;;;;;;;7.28;3.20;;;11.40;99.90;;;;;;5143950;23;20597;-95
2023/03/29 07:22:22;;;;;;;4.88;2.70;;;11.30;99.90;;;;;;5120177;23;20180;-91
2023/03/29 07:24:28;;;;;;;6.43;2.75;;;11.20;99.90;;;;;;5119455;23;20159;-91
2023/03/29 07:26:29;;;;;;;6.72;2.97;;;11.20;99.90;;;;;;5118582;23;20152;-91
2023/03/29 07:28:30;;;;;;;11.30;3.03;;;11.10;99.90;;;;;;5118903;23;20538;-91
2023/03/29 07:30:32;;;;;;;8.35;3.17;;;11.20;99.90;;;;;;5118820;23;20188;-92
2023/03/29 07:32:45;;;;;;;8.57;3.05;;;11.50;99.90;;;;;;5143354;23;20150;-92
2023/03/29 07:35:04;;;;;;;8.52;3.17;;;11.40;99.90;;;;;;5122019;23;20654;-91
2023/03/29 07:37:08;;;;;;;5.35;2.40;;;11.60;99.90;;;;;;5144309;23;20222;-91
2023/03/29 07:39:11;;;;;;;9.68;2.90;;;11.70;99.90;;;;;;5143690;23;20230;-91
2023/03/29 07:41:13;;;;;;;9.27;3.40;;;11.50;99.90;;;;;;5118142;23;20230;-91
2023/03/29 07:43:17;;;;;;;4.75;2.47;;;11.30;99.90;;;;;;5143832;23;20279;-92
2023/03/29 07:45:19;;;;;;;9.65;3.08;;;11.30;99.90;;;;;;5143597;23;20230;-91
2023/03/29 07:47:32;;;;;;;8.90;3.08;;;11.40;99.90;;;;;;5121426;23;20163;-91
2023/03/29 07:49:33;;;;;;;11.57;3.17;;;11.70;99.90;;;;;;5118690;23;20148;-91
2023/03/29 07:51:35;;;;;;;9.77;3.30;;;11.80;99.90;;;;;;5118650;23;20248;-92
2023/03/29 07:53:41;;;;;;;11.60;2.92;;;12.00;99.90;;;;;;5143635;23;20155;-93
2023/03/29 07:55:56;;;;;;;7.20;2.90;;;11.80;99.90;;;;;;5121705;23;20148;-92
2023/03/29 07:58:20;;;;;;;6.03;2.92;;;11.60;99.90;;;;;;5106695;23;20155;-92
2023/03/29 08:00:23;;;;;;;7.78;2.92;;;11.70;99.90;;;;;;5144014;23;20571;-92
2023/03/29 08:02:49;;;;;;;7.13;3.03;;;11.80;99.90;;;;;;5122417;23;20193;-92
2023/03/29 08:04:51;;;;;;;7.38;2.60;;;11.80;99.90;;;;;;5144025;23;20307;-93
2023/03/29 08:07:04;;;;;;;6.75;3.58;;;11.90;99.90;;;;;;5147381;23;20677;-92
2023/03/29 08:09:24;;;;;;;11.85;3.33;;;12.00;99.90;;;;;;5148209;23;20596;-92
2023/03/29 08:11:27;;;;;;;7.18;3.35;;;12.20;99.90;;;;;;5145233;23;20171;-92
2023/03/29 08:13:35;;;;;;;6.95;2.83;;;12.40;99.90;;;;;;5120303;23;20638;-92
2023/03/29 08:15:54;;;;;;;9.27;3.45;;;12.60;99.90;;;;;;5147668;23;20649;-93
2023/03/29 08:18:06;;;;;;;8.80;2.80;;;12.50;99.90;;;;;;5143848;23;20147;-92
2023/03/29 08:20:09;;;;;;;9.35;2.80;;;12.80;99.90;;;;;;5118512;23;20156;-93
2023/03/29 08:22:13;;;;;;;6.65;3.10;;;12.80;99.90;;;;;;5118524;23;20179;-92
2023/03/29 08:24:46;;;;;;;8.07;3.10;;;12.70;99.90;;;;;;5084621;23;20171;-92
2023/03/29 08:26:47;;;;;;;6.90;2.88;;;12.60;99.90;;;;;;5118171;23;20148;-92
2023/03/29 08:28:51;;;;;;;7.07;3.38;;;12.70;99.90;;;;;;5119603;23;20156;-92
2023/03/29 08:30:53;;;;;;;10.27;3.08;;;12.90;99.90;;;;;;5118643;23;20156;-92
2023/03/29 08:32:55;;;;;;;7.22;2.67;;;12.90;99.90;;;;;;5119411;23;20152;-92
2023/03/29 08:34:56;;;;;;;7.13;3.05;;;12.70;99.90;;;;;;5118115;23;20175;-92
2023/03/29 08:37:03;;;;;;;12.00;3.38;;;12.50;99.90;;;;;;5142894;23;20155;-93
2023/03/29 08:39:13;;;;;;;5.75;2.90;;;12.40;99.90;;;;;;5121231;23;20144;-93
2023/03/29 08:41:39;;;;;;;9.98;3.10;;;12.40;99.90;;;;;;5118750;23;20630;-92
2023/03/29 08:44:10;;;;;;;11.32;3.30;;;12.40;99.90;;;;;;5118367;23;20202;-92
2023/03/29 08:46:32;;;;;;;8.60;3.30;;;12.60;99.90;;;;;;5087023;23;20152;-92
2023/03/29 08:48:44;;;;;;;14.48;3.15;;;13.00;99.90;;;;;;5121046;23;20609;-92
2023/03/29 08:50:51;;;;;;;5.60;2.88;;;13.20;99.90;;;;;;5119238;23;20203;-93
2023/03/29 08:52:57;;;;;;;7.03;3.10;;;13.50;99.90;;;;;;5143420;23;20154;-93
2023/03/29 08:55:42;;;;;;;7.38;3.33;;;13.40;99.90;;;;;;5133539;23;20154;-92
2023/03/29 08:58:17;;;;;;;8.73;3.05;;;13.50;99.90;;;;;;5124106;23;20545;-93
2023/03/29 09:00:27;;;;;;;8.88;2.75;;;13.50;99.90;;;;;;5143121;23;20598;-92
2023/03/29 09:02:32;;;;;;;9.30;3.05;;;13.70;99.90;;;;;;5119757;23;20210;-93
2023/03/29 09:04:38;;;;;;;6.75;2.95;;;13.80;99.90;;;;;;5144009;23;20537;-93
2023/03/29 09:07:15;;;;;;;7.45;3.05;;;13.70;99.90;;;;;;5144967;23;20486;-92
2023/03/29 09:09:22;;;;;;;8.82;3.20;;;13.50;99.90;;;;;;5119559;23;20144;-92
2023/03/29 09:11:40;;;;;;;9.45;3.20;;;13.60;99.90;;;;;;5143716;23;20172;-92
2023/03/29 09:13:41;;;;;;;4.97;3.08;;;13.50;99.90;;;;;;5118504;23;20634;-92
2023/03/29 09:15:59;;;;;;;12.18;3.20;;;13.60;99.90;;;;;;5117944;23;20236;-94
2023/03/29 09:18:33;;;;;;;8.45;2.95;;;13.90;99.90;;;;;;5119329;23;20156;-92
2023/03/29 09:20:37;;;;;;;9.50;3.45;;;14.00;99.90;;;;;;5118449;23;20155;-96
2023/03/29 09:22:44;;;;;;;7.50;2.95;;;14.00;99.90;;;;;;5117947;23;20202;-93
2023/03/29 09:25:10;;;;;;;6.30;3.05;;;14.20;99.90;;;;;;5118439;23;20168;-93
2023/03/29 09:27:16;;;;;;;9.65;3.50;;;14.20;99.90;;;;;;5117858;23;20148;-93
2023/03/29 09:30:00;;;;;;;6.28;3.10;;;14.10;99.90;;;;;;5119498;23;20256;-93
2023/03/29 09:32:27;;;;;;;9.80;3.45;;;14.40;99.90;;;;;;5121683;23;20192;-92
2023/03/29 09:34:43;;;;;;;6.53;3.30;;;14.20;99.90;;;;;;5118881;23;20231;-92
2023/03/29 09:37:24;;;;;;;6.72;3.22;;;14.40;99.90;;;;;;5120722;23;20159;-92
2023/03/29 09:39:26;;;;;;;7.28;2.85;;;14.70;99.90;;;;;;5145216;23;20554;-94
2023/03/29 09:41:42;;;;;;;8.80;3.40;;;15.00;99.90;;;;;;5146294;23;20171;-93
2023/03/29 09:43:44;;;;;;;8.23;2.97;;;15.20;99.90;;;;;;5146524;23;20207;-93
2023/03/29 09:45:55;;;;;;;7.15;2.88;;;15.40;99.90;;;;;;5121905;23;20235;-93
2023/03/29 09:48:02;;;;;;;7.07;2.97;;;15.40;99.90;;;;;;5145568;23;20195;-94
2023/03/29 09:50:47;;;;;;;7.30;2.85;;;15.40;99.90;;;;;;5145008;23;20624;-95
2023/03/29 09:52:49;;;;;;;6.05;3.00;;;15.80;99.90;;;;;;5119668;23;20196;-92
2023/03/29 09:54:54;;;;;;;5.93;2.92;;;15.90;99.90;;;;;;5121523;23;20144;-92
2023/03/29 09:57:26;;;;;;;9.32;3.33;;;15.80;99.90;;;;;;5137179;23;20179;-93
2023/03/29 09:59:27;;;;;;;5.38;2.92;;;15.90;99.90;;;;;;5119793;23;20148;-93
2023/03/29 10:01:37;;;;;;;5.45;2.85;;;15.90;99.90;;;;;;5119910;23;20212;-93
2023/03/29 10:03:40;;;;;;;8.43;3.25;;;15.70;99.90;;;;;;5121197;23;20152;-92
2023/03/29 10:05:45;;;;;;;6.38;3.10;;;15.40;99.90;;;;;;5144459;23;20222;-94
2023/03/29 10:07:56;;;;;;;5.82;2.78;;;15.50;99.90;;;;;;5144628;23;20147;-93
2023/03/29 10:09:58;;;;;;;9.43;2.70;;;15.70;99.90;;;;;;5144166;23;20183;-92
2023/03/29 10:12:03;;;;;;;7.43;2.47;;;16.00;99.90;;;;;;5119615;23;20212;-92
2023/03/29 10:14:22;;;;;;;5.47;2.40;;;16.40;99.90;;;;;;5144524;23;20249;-93
2023/03/29 10:16:27;;;;;;;7.00;2.35;;;16.40;99.90;;;;;;5144780;23;20159;-93
2023/03/29 10:18:30;;;;;;;4.40;2.22;;;16.40;99.90;;;;;;5119674;23;20372;-92
2023/03/29 10:20:35;;;;;;;4.90;2.00;;;16.50;99.90;;;;;;5119268;23;20168;-92
2023/03/29 10:22:37;;;;;;;4.53;2.17;;;16.60;99.90;;;;;;5119090;23;20249;-93
2023/03/29 10:24:38;;;;;;;3.58;2.38;;;16.40;99.90;;;;;;5119257;23;20156;-93
2023/03/29 10:26:39;;;;;;;3.60;1.60;;;16.20;99.90;;;;;;5119561;23;20219;-93
2023/03/29 10:28:40;;;;;;;3.58;2.15;;;16.10;99.90;;;;;;5144131;23;20474;-93
2023/03/29 10:30:41;;;;;;;6.50;2.15;;;16.10;99.90;;;;;;5119013;23;20195;-92
2023/03/29 10:32:42;;;;;;;4.38;2.15;;;16.20;99.90;;;;;;5144615;23;20187;-92
2023/03/29 10:34:46;;;;;;;8.18;2.63;;;16.10;99.90;;;;;;5120153;23;20156;-93
2023/03/29 10:36:57;;;;;;;10.02;2.88;;;16.30;99.90;;;;;;5119329;23;20156;-92
2023/03/29 10:39:01;;;;;;;5.90;2.75;;;16.20;99.90;;;;;;5119612;23;20238;-93
2023/03/29 10:41:08;;;;;;;5.43;2.42;;;16.00;99.90;;;;;;5143876;23;20165;-93
2023/03/29 10:43:25;;;;;;;5.68;3.17;;;16.30;99.90;;;;;;5119622;23;20155;-92
2023/03/29 10:45:32;;;;;;;5.97;2.75;;;16.40;99.90;;;;;;5119237;23;20180;-93
2023/03/29 10:47:33;;;;;;;4.32;2.35;;;16.10;99.90;;;;;;5119808;23;20152;-93
2023/03/29 10:49:43;;;;;;;6.53;2.92;;;15.90;99.90;;;;;;5119399;23;20219;-92
2023/03/29 10:51:48;;;;;;;4.00;2.33;;;16.10;99.90;;;;;;5118594;23;20250;-93
2023/03/29 10:53:49;;;;;;;5.53;2.45;;;16.30;99.90;;;;;;5144206;23;20207;-93
2023/03/29 10:56:20;;;;;;;4.40;2.55;;;16.40;99.90;;;;;;5119551;23;20642;-93
2023/03/29 10:58:41;;;;;;;5.00;2.45;;;16.10;99.90;;;;;;5118966;23;20187;-92
2023/03/29 11:01:02;;;;;;;7.60;2.45;;;16.40;99.90;;;;;;5119163;23;20159;-93
2023/03/29 11:03:03;;;;;;;30.05;21.23;;;16.30;99.90;;;;;;5144760;23;20151;-93
2023/03/29 11:05:23;;;;;;;6.20;2.78;;;16.40;99.90;;;;;;5119323;23;20594;-93
2023/03/29 11:07:39;;;;;;;5.82;2.25;;;16.50;99.90;;;;;;5118868;23;20210;-93
2023/03/29 11:09:54;;;;;;;6.32;1.70;;;16.40;99.90;;;;;;5144091;23;20159;-93
2023/03/29 11:12:14;;;;;;;20.70;14.88;;;16.30;99.90;;;;;;5118768;23;20171;-93